createdAt,value
2023-12-19T00:02:22.131Z,17.20
2023-12-19T00:04:51.443Z,16.67
2023-12-19T00:07:19.410Z,17.63
2023-12-19T00:09:47.427Z,17.27
2023-12-19T00:12:15.309Z,16.67
2023-12-19T00:14:43.245Z,15.10
2023-12-19T00:17:11.231Z,17.40
2023-12-19T00:19:39.161Z,15.90
2023-12-19T00:22:07.629Z,16.80
2023-12-19T00:24:35.667Z,16.47
2023-12-19T00:27:03.581Z,16.90
2023-12-19T00:29:31.460Z,16.17
2023-12-19T00:31:59.447Z,15.93
2023-12-19T00:34:28.531Z,14.73
2023-12-19T00:36:56.663Z,14.17
2023-12-19T00:39:26.131Z,14.60
2023-12-19T00:41:54.043Z,13.47
2023-12-19T00:44:21.955Z,13.43
2023-12-19T00:46:49.800Z,13.27
2023-12-19T00:49:17.773Z,13.83
2023-12-19T00:51:45.736Z,11.93
2023-12-19T00:54:13.611Z,12.97
2023-12-19T00:56:45.320Z,12.63
2023-12-19T00:59:13.280Z,13.33
2023-12-19T01:01:41.190Z,12.00
2023-12-19T01:04:10.561Z,12.10
2023-12-19T01:06:38.940Z,12.40
2023-12-19T01:09:07.467Z,11.63
2023-12-19T01:11:35.375Z,11.93
2023-12-19T01:14:04.863Z,10.97
2023-12-19T01:16:32.960Z,10.83
2023-12-19T01:19:02.415Z,11.87
2023-12-19T01:21:30.376Z,11.70
2023-12-19T01:23:58.304Z,11.00
2023-12-19T01:26:30.214Z,10.60
2023-12-19T01:28:58.682Z,10.70
2023-12-19T01:31:28.125Z,11.60
2023-12-19T01:33:56.712Z,10.63
2023-12-19T01:36:24.795Z,10.20
2023-12-19T01:38:52.751Z,12.13
2023-12-19T01:41:20.648Z,10.13
2023-12-19T01:43:49.124Z,11.50
2023-12-19T01:46:19.560Z,10.67
2023-12-19T01:48:49.859Z,10.90
2023-12-19T01:51:18.576Z,10.40
2023-12-19T01:53:49.582Z,9.67
2023-12-19T01:56:19.831Z,9.73
2023-12-19T01:58:48.833Z,8.47
2023-12-19T02:01:18.869Z,8.80
2023-12-19T02:03:49.282Z,7.63
2023-12-19T02:06:20.658Z,7.73
2023-12-19T02:08:50.177Z,7.63
2023-12-19T02:11:18.179Z,7.60
2023-12-19T02:13:47.464Z,7.17
2023-12-19T02:16:23.730Z,7.13
2023-12-19T02:21:50.735Z,6.90
2023-12-19T02:24:20.107Z,6.53
2023-12-19T02:26:48.166Z,6.37
2023-12-19T02:29:16.007Z,7.07
2023-12-19T02:31:44.980Z,6.50
2023-12-19T02:34:12.976Z,6.67
2023-12-19T02:36:40.805Z,6.30
2023-12-19T02:39:08.726Z,5.97
2023-12-19T02:41:37.870Z,6.20
2023-12-19T02:44:06.024Z,5.53
2023-12-19T02:46:34.213Z,5.77
2023-12-19T02:49:02.150Z,6.00
2023-12-19T02:51:31.188Z,5.47
2023-12-19T02:54:00.512Z,5.93
2023-12-19T02:56:29.700Z,5.20
2023-12-19T02:58:58.886Z,5.40
2023-12-19T03:01:26.877Z,5.70
2023-12-19T03:03:55.591Z,5.57
2023-12-19T03:06:23.633Z,4.87
2023-12-19T03:08:53.488Z,4.60
2023-12-19T03:11:21.441Z,5.40
2023-12-19T03:13:49.292Z,5.03
2023-12-19T03:16:18.579Z,5.10
2023-12-19T03:18:46.602Z,5.50
2023-12-19T03:21:14.685Z,5.63
2023-12-19T03:23:42.640Z,5.20
2023-12-19T03:26:10.462Z,4.97
2023-12-19T03:28:38.950Z,5.40
2023-12-19T03:31:07.235Z,5.47
2023-12-19T03:33:36.732Z,5.37
2023-12-19T03:36:05.248Z,5.20
2023-12-19T03:38:33.220Z,5.10
2023-12-19T03:41:01.436Z,5.37
2023-12-19T03:43:29.392Z,5.33
2023-12-19T03:46:02.408Z,5.57
2023-12-19T03:48:30.950Z,5.80
2023-12-19T03:51:00.250Z,5.60
2023-12-19T03:53:28.319Z,5.30
2023-12-19T03:55:56.590Z,5.60
2023-12-19T03:58:24.690Z,5.43
2023-12-19T04:00:52.676Z,5.00
2023-12-19T04:03:20.710Z,5.33
2023-12-19T04:05:48.973Z,5.30
2023-12-19T04:08:18.242Z,5.20
2023-12-19T04:10:46.114Z,5.13
2023-12-19T04:13:14.089Z,5.07
2023-12-19T04:15:42.039Z,5.07
2023-12-19T04:18:11.312Z,5.03
2023-12-19T04:20:40.660Z,5.33
2023-12-19T04:23:08.626Z,4.70
2023-12-19T04:25:38.027Z,4.97
2023-12-19T04:28:06.358Z,5.57
2023-12-19T04:30:34.490Z,5.40
2023-12-19T04:33:02.509Z,5.13
2023-12-19T04:35:30.538Z,5.07
2023-12-19T04:37:58.448Z,5.20
2023-12-19T04:40:26.280Z,5.30
2023-12-19T04:42:55.434Z,5.30
2023-12-19T04:45:23.397Z,4.60
2023-12-19T04:47:51.500Z,5.13
2023-12-19T04:50:19.414Z,5.20
2023-12-19T04:52:47.285Z,5.47
2023-12-19T04:55:15.305Z,5.20
2023-12-19T04:57:43.320Z,5.20
2023-12-19T05:00:13.649Z,5.13
2023-12-19T05:02:43.019Z,5.33
2023-12-19T05:05:11.176Z,4.80
2023-12-19T05:07:39.104Z,5.97
2023-12-19T05:10:07.988Z,5.30
2023-12-19T05:12:36.090Z,5.57
2023-12-19T05:15:04.056Z,5.40
2023-12-19T05:17:33.981Z,4.93
2023-12-19T05:20:01.914Z,5.40
2023-12-19T05:22:31.026Z,5.43
2023-12-19T05:24:58.963Z,5.20
2023-12-19T05:27:26.981Z,4.87
2023-12-19T05:29:54.912Z,5.03
2023-12-19T05:32:22.787Z,4.57
2023-12-19T05:34:52.099Z,4.67
2023-12-19T05:37:20.461Z,4.77
2023-12-19T05:39:48.326Z,4.70
2023-12-19T05:42:16.227Z,4.90
2023-12-19T05:44:44.099Z,4.83
2023-12-19T05:47:12.009Z,5.00
2023-12-19T05:49:39.958Z,4.80
2023-12-19T05:52:09.495Z,5.20
2023-12-19T05:54:37.501Z,5.23
2023-12-19T05:57:05.749Z,4.70
2023-12-19T05:59:33.681Z,5.07
2023-12-19T06:02:01.651Z,5.10
2023-12-19T06:04:29.674Z,5.00
2023-12-19T06:06:57.534Z,5.50
2023-12-19T06:09:26.896Z,4.70
2023-12-19T06:11:54.858Z,5.20
2023-12-19T06:14:22.698Z,5.13
2023-12-19T06:16:50.691Z,4.83
2023-12-19T06:19:18.944Z,5.40
2023-12-19T06:21:46.883Z,4.90
2023-12-19T06:24:14.764Z,5.17
2023-12-19T06:26:44.456Z,5.50
2023-12-19T06:29:12.569Z,4.87
2023-12-19T06:31:45.593Z,4.67
2023-12-19T06:34:14.028Z,5.17
2023-12-19T06:36:42.767Z,5.20
2023-12-19T06:39:10.832Z,4.90
2023-12-19T06:41:38.813Z,5.30
2023-12-19T06:44:08.401Z,4.87
2023-12-19T06:46:36.284Z,5.17
2023-12-19T06:49:04.607Z,5.80
2023-12-19T06:51:33.763Z,5.07
2023-12-19T06:54:01.792Z,5.10
2023-12-19T06:56:32.310Z,5.83
2023-12-19T06:59:02.001Z,4.60
2023-12-19T07:01:31.440Z,6.10
2023-12-19T07:03:59.448Z,5.30
2023-12-19T07:06:27.573Z,6.77
2023-12-19T07:08:55.933Z,5.33
2023-12-19T07:11:27.917Z,5.73
2023-12-19T07:13:55.751Z,5.17
2023-12-19T07:16:23.852Z,5.90
2023-12-19T07:18:53.476Z,6.23
2023-12-19T07:21:23.409Z,5.47
2023-12-19T07:23:51.907Z,5.53
2023-12-19T07:26:28.318Z,5.13
2023-12-19T07:28:58.470Z,5.90
2023-12-19T07:31:27.781Z,5.47
2023-12-19T07:34:00.135Z,5.27
2023-12-19T07:36:29.232Z,5.30
2023-12-19T07:38:57.307Z,6.13
2023-12-19T07:41:28.100Z,5.63
2023-12-19T07:43:56.445Z,5.50
2023-12-19T07:46:24.527Z,5.50
2023-12-19T07:48:52.948Z,5.33
2023-12-19T07:51:24.472Z,6.40
2023-12-19T07:53:52.893Z,6.33
2023-12-19T07:56:20.842Z,5.00
2023-12-19T07:58:48.990Z,5.43
2023-12-19T08:01:17.637Z,6.60
2023-12-19T08:03:46.941Z,5.97
2023-12-19T08:06:15.166Z,5.43
2023-12-19T08:08:44.785Z,5.50
2023-12-19T08:11:13.565Z,5.93
2023-12-19T08:13:41.455Z,5.13
2023-12-19T08:16:09.589Z,5.53
2023-12-19T08:18:37.933Z,5.70
2023-12-19T08:21:06.328Z,5.80
2023-12-19T08:23:34.269Z,5.77
2023-12-19T08:26:03.964Z,5.10
2023-12-19T08:28:31.761Z,5.60
2023-12-19T08:30:59.673Z,5.50
2023-12-19T08:33:27.834Z,5.20
2023-12-19T08:35:55.810Z,5.50
2023-12-19T08:38:23.774Z,5.60
2023-12-19T08:40:51.685Z,5.33
2023-12-19T08:43:21.628Z,5.70
2023-12-19T08:45:50.210Z,5.40
2023-12-19T08:48:18.933Z,5.37
2023-12-19T08:50:47.146Z,5.87
2023-12-19T08:53:15.199Z,6.30
2023-12-19T08:55:47.577Z,6.13
2023-12-19T08:58:16.073Z,5.40
2023-12-19T09:00:45.404Z,6.00
2023-12-19T09:03:13.311Z,6.27
2023-12-19T09:05:41.104Z,5.43
2023-12-19T09:08:09.328Z,5.63
2023-12-19T09:10:37.178Z,5.33
2023-12-19T09:13:06.415Z,5.20
2023-12-19T09:15:34.410Z,5.87
2023-12-19T09:18:04.449Z,5.50
2023-12-19T09:20:32.785Z,5.23
2023-12-19T09:23:00.700Z,6.13
2023-12-19T09:25:28.545Z,5.43
2023-12-19T09:27:57.162Z,5.70
2023-12-19T09:30:25.152Z,6.03
2023-12-19T09:32:53.870Z,5.40
2023-12-19T09:35:23.242Z,5.70
2023-12-19T09:37:51.138Z,5.43
2023-12-19T09:40:20.967Z,5.50
2023-12-19T09:42:49.656Z,5.53
2023-12-19T09:45:18.006Z,5.27
2023-12-19T09:47:56.097Z,5.40
2023-12-19T09:50:28.169Z,5.43
2023-12-19T09:52:58.900Z,5.20
2023-12-19T09:55:29.154Z,5.60
2023-12-19T09:57:59.104Z,5.10
2023-12-19T10:00:30.424Z,5.27
2023-12-19T10:02:58.499Z,5.80
2023-12-19T10:05:27.978Z,5.33
2023-12-19T10:07:58.450Z,5.80
2023-12-19T10:10:51.398Z,5.60
2023-12-19T10:13:28.359Z,5.33
2023-12-19T10:16:29.493Z,6.27
2023-12-19T10:18:57.520Z,6.00
2023-12-19T10:21:30.937Z,5.70
2023-12-19T10:24:09.415Z,5.83
2023-12-19T10:26:37.738Z,6.37
2023-12-19T10:29:06.084Z,5.40
2023-12-19T10:31:34.267Z,5.37
2023-12-19T10:34:02.628Z,6.10
2023-12-19T10:36:33.690Z,5.80
2023-12-19T10:39:03.658Z,6.03
2023-12-19T10:41:32.608Z,6.03
2023-12-19T10:44:02.772Z,5.77
2023-12-19T10:46:32.279Z,5.67
2023-12-19T10:49:01.378Z,6.03
2023-12-19T10:51:34.579Z,5.77
2023-12-19T10:54:10.604Z,6.10
2023-12-19T10:57:01.420Z,5.90
2023-12-19T10:59:36.377Z,5.63
2023-12-19T11:02:14.971Z,6.40
2023-12-19T11:04:46.191Z,6.00
2023-12-19T11:07:18.045Z,6.30
2023-12-19T11:09:53.456Z,6.73
2023-12-19T11:12:21.703Z,6.43
2023-12-19T11:14:49.745Z,5.97
2023-12-19T11:17:22.163Z,6.07
2023-12-19T11:19:54.407Z,5.90
2023-12-19T11:22:32.527Z,5.80
2023-12-19T11:25:15.108Z,6.53
2023-12-19T11:27:55.224Z,6.10
2023-12-19T11:30:42.400Z,5.57
2023-12-19T11:33:12.806Z,6.07
2023-12-19T11:35:41.146Z,5.53
2023-12-19T11:38:27.369Z,6.47
2023-12-19T11:40:58.166Z,6.40
2023-12-19T11:43:57.263Z,6.67
2023-12-19T11:46:28.125Z,6.10
2023-12-19T11:48:57.463Z,6.97
2023-12-19T11:51:52.295Z,6.80
2023-12-19T11:54:22.354Z,6.50
2023-12-19T11:57:01.347Z,6.67
2023-12-19T11:59:48.034Z,6.57
2023-12-19T12:02:29.617Z,7.17
2023-12-19T12:05:09.576Z,7.43
2023-12-19T12:07:42.523Z,6.67
2023-12-19T12:10:13.079Z,6.10
2023-12-19T12:12:41.095Z,6.67
2023-12-19T12:15:11.002Z,6.33
2023-12-19T12:17:39.106Z,6.17
2023-12-19T12:20:08.142Z,6.20
2023-12-19T12:22:36.237Z,5.97
2023-12-19T12:25:04.366Z,6.60
2023-12-19T12:27:33.678Z,6.67
2023-12-19T12:30:02.157Z,6.40
2023-12-19T12:32:30.724Z,6.23
2023-12-19T12:34:59.042Z,6.00
2023-12-19T12:37:28.440Z,7.20
2023-12-19T12:40:05.734Z,6.67
2023-12-19T12:42:35.033Z,6.70
2023-12-19T12:45:04.013Z,6.10
2023-12-19T12:47:31.996Z,6.43
2023-12-19T12:50:04.042Z,6.10
2023-12-19T12:52:31.998Z,6.47
2023-12-19T12:55:04.683Z,6.47
2023-12-19T12:57:34.473Z,6.27
2023-12-19T13:00:04.987Z,6.40
2023-12-19T13:02:38.171Z,5.93
2023-12-19T13:05:06.825Z,6.63
2023-12-19T13:07:34.675Z,6.17
2023-12-19T13:10:02.615Z,6.23
2023-12-19T13:12:30.619Z,6.33
2023-12-19T13:14:59.762Z,7.00
2023-12-19T13:17:28.053Z,6.37
2023-12-19T13:19:56.322Z,6.60
2023-12-19T13:22:26.916Z,6.47
2023-12-19T13:24:54.840Z,5.90
2023-12-19T13:27:22.937Z,7.23
2023-12-19T13:29:54.407Z,8.40
2023-12-19T13:32:23.646Z,6.43
2023-12-19T13:34:52.529Z,7.57
2023-12-19T13:37:21.037Z,7.93
2023-12-19T13:39:49.312Z,7.80
2023-12-19T13:42:17.288Z,7.03
2023-12-19T13:44:45.181Z,7.93
2023-12-19T13:47:13.089Z,7.80
2023-12-19T13:49:42.457Z,7.87
2023-12-19T13:52:10.481Z,9.07
2023-12-19T13:54:40.162Z,7.80
2023-12-19T13:57:09.236Z,7.63
2023-12-19T13:59:38.681Z,8.17
2023-12-19T14:02:09.751Z,8.53
2023-12-19T14:04:39.347Z,9.33
2023-12-19T14:07:15.044Z,8.10
2023-12-19T14:09:43.156Z,9.00
2023-12-19T14:12:11.200Z,9.33
2023-12-19T14:14:39.031Z,8.30
2023-12-19T14:17:07.123Z,8.37
2023-12-19T14:19:36.707Z,7.83
2023-12-19T14:22:05.164Z,7.07
2023-12-19T14:24:34.530Z,7.80
2023-12-19T14:27:02.666Z,7.43
2023-12-19T14:29:32.478Z,7.87
2023-12-19T14:32:00.513Z,7.20
2023-12-19T14:34:28.490Z,7.00
2023-12-19T14:36:57.159Z,7.47
2023-12-19T14:39:25.132Z,7.37
2023-12-19T14:41:54.362Z,8.60
2023-12-19T14:44:22.281Z,8.47
2023-12-19T14:46:50.380Z,8.17
2023-12-19T14:49:18.430Z,7.80
2023-12-19T14:51:46.371Z,8.20
2023-12-19T14:54:14.622Z,7.67
2023-12-19T14:56:43.815Z,8.47
2023-12-19T14:59:13.187Z,8.20
2023-12-19T15:01:41.371Z,8.00
2023-12-19T15:04:09.786Z,7.77
2023-12-19T15:06:38.953Z,8.20
2023-12-19T15:09:07.615Z,7.40
2023-12-19T15:11:35.580Z,7.63
2023-12-19T15:14:03.636Z,7.60
2023-12-19T15:16:32.919Z,7.90
2023-12-19T15:19:00.913Z,7.70
2023-12-19T15:21:28.868Z,7.10
2023-12-19T15:23:57.758Z,6.90
2023-12-19T15:26:27.046Z,7.50
2023-12-19T15:28:57.376Z,7.23
2023-12-19T15:31:25.970Z,5.97
2023-12-19T15:33:55.830Z,7.60
2023-12-19T15:36:24.294Z,7.57
2023-12-19T15:38:52.159Z,6.43
2023-12-19T15:41:22.307Z,6.67
2023-12-19T15:43:58.192Z,6.80
2023-12-19T15:46:33.564Z,6.40
2023-12-19T15:49:03.719Z,6.33
2023-12-19T15:51:34.504Z,6.50
2023-12-19T15:54:03.681Z,6.40
2023-12-19T15:56:33.355Z,6.00
2023-12-19T15:59:05.158Z,6.40
2023-12-19T16:01:33.689Z,6.50
2023-12-19T16:04:03.394Z,6.93
2023-12-19T16:06:32.823Z,7.53
2023-12-19T16:09:00.830Z,8.00
2023-12-19T16:11:28.953Z,8.53
2023-12-19T16:13:57.782Z,9.73
2023-12-19T16:16:25.806Z,11.00
2023-12-19T16:18:54.360Z,11.57
2023-12-19T16:21:23.946Z,11.77
2023-12-19T16:24:01.024Z,12.93
2023-12-19T16:26:33.010Z,11.23
2023-12-19T16:29:01.730Z,11.20
2023-12-19T16:31:30.035Z,10.67
2023-12-19T16:33:58.104Z,10.53
2023-12-19T16:36:27.516Z,9.90
2023-12-19T16:38:55.400Z,10.10
2023-12-19T16:41:26.600Z,9.07
2023-12-19T16:43:54.522Z,8.70
2023-12-19T16:46:26.844Z,7.80
2023-12-19T16:49:00.822Z,7.70
2023-12-19T16:51:30.362Z,7.53
2023-12-19T16:53:58.327Z,7.80
2023-12-19T16:56:26.335Z,7.07
2023-12-19T16:58:54.303Z,7.13
2023-12-19T17:01:22.202Z,6.77
2023-12-19T17:03:50.703Z,7.30
2023-12-19T17:06:20.203Z,6.90
2023-12-19T17:08:50.687Z,7.17
2023-12-19T17:11:18.586Z,7.40
2023-12-19T17:13:46.534Z,7.20
2023-12-19T17:16:14.770Z,6.73
2023-12-19T17:18:42.758Z,8.20
2023-12-19T17:21:10.767Z,7.67
2023-12-19T17:23:43.095Z,7.90
2023-12-19T17:26:17.788Z,6.97
2023-12-19T17:28:45.691Z,7.70
2023-12-19T17:31:14.092Z,8.20
2023-12-19T17:33:42.127Z,7.70
2023-12-19T17:36:13.007Z,7.57
2023-12-19T17:38:41.222Z,7.57
2023-12-19T17:41:09.259Z,7.13
2023-12-19T17:43:40.901Z,7.27
2023-12-19T17:46:08.898Z,7.83
2023-12-19T17:48:36.840Z,7.27
2023-12-19T17:51:07.701Z,9.27
2023-12-19T17:53:36.975Z,7.43
2023-12-19T17:56:05.589Z,7.83
2023-12-19T17:58:33.436Z,7.77
2023-12-19T18:01:02.868Z,7.33
2023-12-19T18:03:31.685Z,7.73
2023-12-19T18:06:00.898Z,9.20
2023-12-19T18:08:29.357Z,8.00
2023-12-19T18:10:59.470Z,8.33
2023-12-19T18:13:27.621Z,7.63
2023-12-19T18:15:56.014Z,8.77
2023-12-19T18:18:26.407Z,9.37
2023-12-19T18:20:58.161Z,8.67
2023-12-19T18:23:26.431Z,9.17
2023-12-19T18:25:54.647Z,8.70
2023-12-19T18:28:22.512Z,9.07
2023-12-19T18:30:50.611Z,9.40
2023-12-19T18:33:18.690Z,9.47
2023-12-19T18:35:48.333Z,8.57
2023-12-19T18:38:16.494Z,9.60
2023-12-19T18:40:44.380Z,9.73
2023-12-19T18:43:12.266Z,9.80
2023-12-19T18:45:40.184Z,9.10
2023-12-19T18:48:08.719Z,9.50
2023-12-19T18:50:36.696Z,9.53
2023-12-19T18:53:06.386Z,9.17
2023-12-19T18:55:34.662Z,9.43
2023-12-19T18:58:03.089Z,8.77
2023-12-19T19:00:31.415Z,8.80
2023-12-19T19:02:59.462Z,8.67
2023-12-19T19:05:27.474Z,9.57
2023-12-19T19:07:55.562Z,9.73
2023-12-19T19:10:24.971Z,9.77
2023-12-19T19:12:54.410Z,9.63
2023-12-19T19:15:22.677Z,10.10
2023-12-19T19:17:50.678Z,9.90
2023-12-19T19:20:35.567Z,9.83
2023-12-19T19:23:06.032Z,9.33
2023-12-19T19:25:38.554Z,9.50
2023-12-19T19:28:06.149Z,9.40
2023-12-19T19:30:34.191Z,9.67
2023-12-19T19:33:02.244Z,9.20
2023-12-19T19:35:30.235Z,10.70
2023-12-19T19:37:58.397Z,9.13
2023-12-19T19:40:35.550Z,8.80
2023-12-19T19:43:11.672Z,9.50
2023-12-19T19:45:39.672Z,9.00
2023-12-19T19:48:08.448Z,10.57
2023-12-19T19:50:36.842Z,9.40
2023-12-19T19:53:05.106Z,10.33
2023-12-19T19:55:33.070Z,9.70
2023-12-19T19:58:02.813Z,9.73
2023-12-19T20:00:32.091Z,9.37
2023-12-19T20:03:03.742Z,9.17
2023-12-19T20:05:32.875Z,9.47
2023-12-19T20:08:01.281Z,9.60
2023-12-19T20:10:29.418Z,8.60
2023-12-19T20:12:57.935Z,8.93
2023-12-19T20:15:25.874Z,9.30
2023-12-19T20:17:55.207Z,9.03
2023-12-19T20:20:23.413Z,8.50
2023-12-19T20:22:51.889Z,8.73
2023-12-19T20:25:20.824Z,8.57
2023-12-19T20:27:50.292Z,9.87
2023-12-19T20:30:20.401Z,8.73
2023-12-19T20:32:49.384Z,9.80
2023-12-19T20:35:19.444Z,9.73
2023-12-19T20:37:47.728Z,8.80
2023-12-19T20:40:19.021Z,8.70
2023-12-19T20:42:47.760Z,10.00
2023-12-19T20:45:16.206Z,7.17
2023-12-19T20:47:44.531Z,8.40
2023-12-19T20:50:14.147Z,8.20
2023-12-19T20:52:53.284Z,9.17
2023-12-19T20:55:25.322Z,9.10
2023-12-19T20:57:53.908Z,8.97
2023-12-19T21:00:25.707Z,8.43
2023-12-19T21:02:54.109Z,9.23
2023-12-19T21:05:22.439Z,9.33
2023-12-19T21:07:51.904Z,9.83
2023-12-19T21:10:20.860Z,9.53
2023-12-19T21:12:49.487Z,8.47
2023-12-19T21:15:18.291Z,9.67
2023-12-19T21:17:46.235Z,8.87
2023-12-19T21:20:14.705Z,9.83
2023-12-19T21:22:43.109Z,10.93
2023-12-19T21:25:12.643Z,9.30
2023-12-19T21:27:40.874Z,9.53
2023-12-19T21:30:10.102Z,10.43
2023-12-19T21:32:41.164Z,9.80
2023-12-19T21:35:10.712Z,10.30
2023-12-19T21:37:38.883Z,10.30
2023-12-19T21:40:08.102Z,10.63
2023-12-19T21:42:37.701Z,10.63
2023-12-19T21:45:06.771Z,10.50
2023-12-19T21:47:34.642Z,10.77
2023-12-19T21:50:02.859Z,10.27
2023-12-19T21:52:31.161Z,10.77
2023-12-19T21:55:01.169Z,11.23
2023-12-19T21:57:30.634Z,10.93
2023-12-19T22:00:00.160Z,10.73
2023-12-19T22:02:29.331Z,10.93
2023-12-19T22:04:57.339Z,11.80
2023-12-19T22:07:25.413Z,11.27
2023-12-19T22:09:59.740Z,10.67
2023-12-19T22:12:30.609Z,11.80
2023-12-19T22:14:59.913Z,11.33
2023-12-19T22:17:28.052Z,11.97
2023-12-19T22:19:56.339Z,12.00
2023-12-19T22:22:24.522Z,12.27
2023-12-19T22:24:52.574Z,11.27
2023-12-19T22:27:20.524Z,13.07
2023-12-19T22:29:48.407Z,12.47
2023-12-19T22:32:17.740Z,13.90
2023-12-19T22:34:45.603Z,13.73
2023-12-19T22:37:13.655Z,12.57
2023-12-19T22:39:41.800Z,13.33
2023-12-19T22:42:09.881Z,12.40
2023-12-19T22:44:37.793Z,15.37
2023-12-19T22:47:05.919Z,13.33
2023-12-19T22:49:35.484Z,13.53
2023-12-19T22:52:03.367Z,13.00
2023-12-19T22:54:31.502Z,14.63
2023-12-19T22:56:59.383Z,14.93
2023-12-19T22:59:27.514Z,13.93
2023-12-19T23:01:56.043Z,14.17
2023-12-19T23:04:24.331Z,15.00
2023-12-19T23:06:53.896Z,13.13
2023-12-19T23:09:21.844Z,13.50
2023-12-19T23:11:49.846Z,13.20
2023-12-19T23:14:19.262Z,14.27
2023-12-19T23:16:47.341Z,14.10
2023-12-19T23:19:15.685Z,14.30
2023-12-19T23:21:43.832Z,13.07
2023-12-19T23:24:13.050Z,13.30
2023-12-19T23:26:40.867Z,13.87
2023-12-19T23:29:10.257Z,13.43
2023-12-19T23:31:42.288Z,15.20
2023-12-19T23:34:11.503Z,14.67
2023-12-19T23:36:39.908Z,14.23
2023-12-19T23:39:07.881Z,14.20
2023-12-19T23:41:37.516Z,13.97
2023-12-19T23:44:05.715Z,14.60
2023-12-19T23:46:33.502Z,13.10
2023-12-19T23:49:01.480Z,13.23
2023-12-19T23:51:29.453Z,13.87
2023-12-19T23:53:57.406Z,13.30
2023-12-19T23:56:25.292Z,13.60
2023-12-19T23:58:54.479Z,12.83
